createdAt,value
2023-03-21T02:23:41.656Z,230.67
2023-03-21T02:24:46.309Z,230.28
2023-03-21T02:25:42.615Z,230.38
2023-03-21T02:26:43.908Z,230.52
2023-03-21T02:27:41.590Z,230.38
2023-03-21T02:28:41.572Z,230.53
2023-03-21T02:29:41.566Z,230.41
2023-03-21T02:30:51.165Z,230.60
2023-03-21T02:31:42.590Z,230.41
2023-03-21T02:32:41.511Z,230.62
2023-03-21T02:33:41.507Z,230.70
2023-03-21T02:34:41.478Z,230.67
2023-03-21T02:35:47.138Z,231.63
2023-03-21T02:36:41.503Z,230.38
2023-03-21T02:37:43.010Z,230.50
2023-03-21T02:38:41.416Z,231.21
2023-03-21T02:39:41.407Z,231.26
2023-03-21T02:40:41.388Z,231.60
2023-03-21T02:41:41.375Z,231.28
2023-03-21T02:42:43.330Z,230.05
2023-03-21T02:43:41.348Z,230.13
2023-03-21T02:44:41.334Z,230.09
2023-03-21T02:45:41.374Z,230.61
2023-03-21T02:46:47.075Z,230.20
2023-03-21T02:47:42.342Z,230.13
2023-03-21T02:48:50.557Z,230.28
2023-03-21T02:49:42.275Z,230.15
2023-03-21T02:50:41.267Z,230.42
2023-03-21T02:51:41.268Z,230.38
2023-03-21T02:52:41.242Z,230.51
2023-03-21T02:53:41.235Z,230.74
2023-03-21T02:54:47.859Z,230.04
2023-03-21T02:55:42.227Z,230.11
2023-03-21T02:56:41.220Z,230.07
2023-03-21T02:57:43.435Z,227.30
2023-03-21T02:58:41.406Z,223.81
2023-03-21T02:59:51.670Z,221.56
2023-03-21T03:00:42.377Z,219.01
2023-03-21T03:01:41.401Z,215.56
2023-03-21T03:02:41.356Z,213.59
2023-03-21T03:03:41.350Z,209.39
2023-03-21T03:04:41.432Z,207.50
2023-03-21T03:05:41.337Z,204.59
2023-03-21T03:06:41.321Z,202.14
2023-03-21T03:07:41.310Z,198.48
2023-03-21T03:08:50.182Z,196.54
2023-03-21T03:09:42.317Z,194.44
2023-03-21T03:10:41.277Z,191.07
2023-03-21T03:11:41.293Z,188.31
2023-03-21T03:12:41.268Z,186.33
2023-03-21T03:13:41.268Z,183.20
2023-03-21T03:14:53.139Z,180.92
2023-03-21T03:16:41.258Z,177.80
2023-03-21T03:17:41.239Z,175.75
2023-03-21T03:18:41.245Z,173.57
2023-03-21T03:19:49.770Z,170.26
2023-03-21T03:21:41.222Z,166.37
2023-03-21T03:22:41.226Z,165.14
2023-03-21T03:23:41.222Z,163.04
2023-03-21T03:24:41.222Z,160.98
2023-03-21T03:25:43.296Z,160.08
2023-03-21T03:26:41.220Z,159.36
2023-03-21T03:27:41.221Z,159.40
2023-03-21T03:28:41.272Z,158.35
2023-03-21T03:29:41.221Z,157.47
2023-03-21T03:30:48.628Z,155.48
2023-03-21T03:32:41.202Z,154.66
2023-03-21T03:33:41.212Z,153.89
2023-03-21T03:34:41.211Z,153.79
2023-03-21T03:35:41.219Z,154.01
2023-03-21T03:36:41.268Z,154.07
2023-03-21T03:37:41.179Z,154.20
2023-03-21T03:38:41.174Z,153.13
2023-03-21T03:39:41.177Z,153.89
2023-03-21T03:40:41.745Z,153.85
2023-03-21T03:42:04.424Z,154.48
2023-03-21T03:43:41.141Z,154.57
2023-03-21T03:44:41.143Z,154.51
2023-03-21T03:45:41.144Z,154.25
2023-03-21T03:46:41.223Z,152.60
2023-03-21T03:47:50.785Z,150.39
2023-03-21T03:49:41.153Z,148.87
2023-03-21T03:50:41.115Z,148.02
2023-03-21T03:51:41.103Z,146.14
2023-03-21T03:52:53.467Z,144.69
2023-03-21T03:54:41.089Z,143.14
2023-03-21T03:55:41.088Z,142.07
2023-03-21T03:56:41.090Z,142.31
2023-03-21T03:57:41.065Z,142.19
2023-03-21T03:58:45.797Z,142.27
2023-03-21T04:00:41.062Z,142.40
2023-03-21T04:01:41.079Z,142.59
2023-03-21T04:02:41.097Z,142.88
2023-03-21T04:03:49.486Z,142.54
2023-03-21T04:05:41.008Z,142.48
2023-03-21T04:06:41.009Z,142.44
2023-03-21T04:07:40.994Z,142.69
2023-03-21T04:08:40.985Z,142.71
2023-03-21T04:09:44.853Z,143.29
2023-03-21T04:10:40.988Z,143.35
2023-03-21T04:11:40.971Z,143.45
2023-03-21T04:12:40.969Z,143.14
2023-03-21T04:13:40.963Z,142.11
2023-03-21T04:14:45.613Z,141.57
2023-03-21T04:16:40.966Z,142.87
2023-03-21T04:17:40.942Z,141.97
2023-03-21T04:18:40.932Z,140.67
2023-03-21T04:19:40.943Z,138.91
2023-03-21T04:20:40.942Z,137.03
2023-03-21T04:21:40.913Z,135.78
2023-03-21T04:22:40.920Z,134.23
2023-03-21T04:23:40.926Z,133.84
2023-03-21T04:24:40.911Z,133.62
2023-03-21T04:25:50.771Z,133.04
2023-03-21T04:26:40.917Z,133.12
2023-03-21T04:27:40.908Z,133.32
2023-03-21T04:28:40.927Z,133.86
2023-03-21T04:29:40.920Z,134.86
2023-03-21T04:30:41.305Z,136.64
2023-03-21T04:31:40.926Z,133.23
2023-03-21T04:32:40.894Z,133.92
2023-03-21T04:33:40.899Z,135.31
2023-03-21T04:34:40.903Z,136.74
2023-03-21T04:35:40.898Z,140.19
2023-03-21T04:36:40.889Z,141.37
2023-03-21T04:37:40.905Z,141.65
2023-03-21T04:38:40.889Z,142.29
2023-03-21T04:39:40.900Z,142.62
2023-03-21T04:40:40.904Z,142.35
2023-03-21T04:41:40.903Z,142.28
2023-03-21T04:42:40.902Z,142.23
2023-03-21T04:43:40.884Z,141.80
2023-03-21T04:44:40.889Z,141.60
2023-03-21T04:45:40.982Z,141.95
2023-03-21T04:46:40.898Z,141.89
2023-03-21T04:47:40.942Z,141.83
2023-03-21T04:48:40.895Z,140.89
2023-03-21T04:49:40.895Z,140.85
2023-03-21T04:50:40.912Z,140.69
2023-03-21T04:51:40.899Z,140.25
2023-03-21T04:52:40.910Z,140.05
2023-03-21T04:53:40.898Z,139.90
2023-03-21T04:54:40.904Z,140.57
2023-03-21T04:55:40.921Z,140.68
2023-03-21T04:56:40.931Z,140.54
2023-03-21T04:57:40.906Z,141.30
2023-03-21T04:58:40.915Z,141.57
2023-03-21T04:59:40.905Z,141.64
2023-03-21T05:00:40.963Z,142.00
2023-03-21T05:01:40.911Z,142.33
2023-03-21T05:02:40.914Z,142.50
2023-03-21T05:03:40.936Z,142.51
2023-03-21T05:04:40.914Z,142.57
2023-03-21T05:05:40.916Z,141.91
2023-03-21T05:06:40.923Z,141.07
2023-03-21T05:07:40.913Z,140.05
2023-03-21T05:08:40.921Z,139.32
2023-03-21T05:09:40.912Z,138.46
2023-03-21T05:10:40.916Z,136.85
2023-03-21T05:11:40.925Z,136.73
2023-03-21T05:12:40.916Z,135.03
2023-03-21T05:13:40.920Z,133.28
2023-03-21T05:14:40.918Z,132.00
2023-03-21T05:15:40.923Z,130.41
2023-03-21T05:16:40.937Z,129.61
2023-03-21T05:17:40.929Z,129.28
2023-03-21T05:18:40.919Z,129.30
2023-03-21T05:19:40.921Z,128.13
2023-03-21T05:20:40.931Z,126.81
2023-03-21T05:21:40.923Z,125.82
2023-03-21T05:22:40.929Z,125.04
2023-03-21T05:23:40.938Z,123.49
2023-03-21T05:24:40.939Z,122.44
2023-03-21T05:25:40.937Z,121.97
2023-03-21T05:26:40.943Z,120.83
2023-03-21T05:27:40.950Z,120.35
2023-03-21T05:28:40.954Z,120.17
2023-03-21T05:29:40.957Z,120.26
2023-03-21T05:30:40.984Z,119.49
2023-03-21T05:31:40.966Z,119.86
2023-03-21T05:32:40.971Z,119.99
2023-03-21T05:33:40.985Z,120.39
2023-03-21T05:34:40.978Z,120.21
2023-03-21T05:35:41.167Z,120.89
2023-03-21T05:36:40.985Z,121.06
2023-03-21T05:37:40.989Z,122.15
2023-03-21T05:38:40.988Z,123.07
2023-03-21T05:39:40.978Z,124.45
2023-03-21T05:40:40.983Z,124.83
2023-03-21T05:41:40.987Z,126.18
2023-03-21T05:42:40.987Z,126.55
2023-03-21T05:43:41.015Z,127.65
2023-03-21T05:44:41.012Z,128.87
2023-03-21T05:45:41.011Z,129.11
2023-03-21T05:46:41.021Z,130.65
2023-03-21T05:47:41.039Z,132.05
2023-03-21T05:48:41.013Z,134.21
2023-03-21T05:49:41.023Z,135.36
2023-03-21T05:50:41.006Z,136.83
2023-03-21T05:51:40.989Z,136.63
2023-03-21T05:52:40.996Z,137.39
2023-03-21T05:53:40.987Z,138.98
2023-03-21T05:54:40.990Z,139.70
2023-03-21T05:55:40.970Z,139.84
2023-03-21T05:59:40.964Z,140.93
2023-03-21T07:05:40.863Z,107.12
2023-03-21T07:06:40.787Z,96.48
2023-03-21T07:07:40.803Z,96.02
2023-03-21T07:08:40.823Z,102.19
2023-03-21T07:09:40.863Z,110.10
2023-03-21T07:10:40.819Z,109.40
2023-03-21T07:11:40.814Z,89.09
2023-03-21T07:12:40.867Z,89.78
2023-03-21T07:13:40.833Z,83.33
2023-03-21T07:14:40.842Z,89.01
2023-03-21T07:15:40.829Z,93.37
2023-03-21T07:16:40.855Z,104.21
2023-03-21T07:17:40.839Z,117.78
2023-03-21T07:18:40.819Z,124.90
2023-03-21T07:19:40.844Z,131.02
2023-03-21T07:20:40.813Z,133.50
2023-03-21T07:21:40.821Z,137.58
2023-03-21T07:22:40.825Z,142.72
2023-03-21T07:23:40.816Z,146.42
2023-03-21T07:24:40.807Z,153.68
2023-03-21T07:25:41.184Z,157.65
2023-03-21T07:26:40.817Z,162.24
2023-03-21T07:27:41.455Z,167.23
2023-03-21T07:28:40.811Z,171.94
2023-03-21T07:29:40.838Z,176.43
2023-03-21T07:30:40.792Z,179.95
2023-03-21T07:31:40.896Z,183.20
2023-03-21T07:32:40.841Z,185.61
2023-03-21T07:33:40.766Z,188.12
2023-03-21T07:34:40.767Z,190.06
2023-03-21T07:35:41.318Z,192.25
2023-03-21T07:36:40.758Z,194.21
2023-03-21T07:37:40.777Z,196.20
2023-03-21T07:38:40.732Z,198.61
2023-03-21T07:39:40.729Z,200.36
2023-03-21T07:40:40.720Z,200.28
2023-03-21T07:41:40.745Z,199.40
2023-03-21T07:42:40.724Z,199.55
2023-03-21T07:43:40.715Z,200.12
2023-03-21T07:44:40.706Z,200.37
2023-03-21T07:45:41.015Z,198.38
2023-03-21T07:46:40.676Z,204.91
2023-03-21T07:47:40.737Z,202.54
2023-03-21T07:48:40.684Z,189.60
2023-03-21T07:49:40.687Z,147.18
2023-03-21T07:50:40.685Z,107.46
2023-03-21T07:51:40.676Z,105.32
2023-03-21T07:52:40.669Z,97.25
2023-03-21T07:53:40.672Z,85.68
2023-03-21T07:54:40.746Z,79.73
2023-03-21T07:55:40.807Z,98.40
2023-03-21T07:56:41.241Z,100.97
2023-03-21T07:57:40.784Z,104.49
2023-03-21T07:58:40.674Z,111.25
2023-03-21T07:59:40.775Z,94.78
2023-03-21T08:00:40.648Z,73.92
2023-03-21T08:01:40.672Z,60.37
2023-03-21T08:02:40.753Z,77.05
2023-03-21T08:03:40.810Z,86.03
2023-03-21T08:04:40.668Z,97.34
2023-03-21T08:05:41.054Z,87.94
2023-03-21T08:06:40.658Z,90.12
2023-03-21T08:07:40.728Z,77.36
2023-03-21T08:08:40.733Z,57.85
2023-03-21T08:09:40.656Z,37.86
2023-03-21T08:10:40.657Z,32.24
2023-03-21T08:11:40.687Z,27.09
2023-03-21T08:12:40.761Z,31.71
2023-03-21T08:13:40.661Z,31.78
2023-03-21T08:14:40.646Z,31.85
2023-03-21T08:15:40.753Z,42.13
2023-03-21T08:16:40.706Z,44.72
2023-03-21T08:17:40.642Z,15.31
2023-03-21T08:18:40.680Z,33.41
2023-03-21T08:19:40.657Z,7.16
2023-03-21T08:20:40.778Z,9.84
2023-03-21T08:21:40.706Z,25.05
2023-03-21T08:22:40.633Z,24.12
2023-03-21T08:23:40.710Z,13.58
2023-03-21T08:24:40.717Z,0.00
2023-03-21T08:25:40.765Z,0.00
2023-03-21T08:26:40.723Z,0.00
2023-03-21T08:27:40.894Z,9.46
2023-03-21T08:28:41.261Z,23.59
2023-03-21T08:29:40.718Z,18.54
2023-03-21T08:30:40.633Z,29.16
2023-03-21T08:31:40.688Z,29.30
2023-03-21T08:32:40.640Z,29.37
2023-03-21T08:33:40.628Z,2.42
2023-03-21T08:34:40.610Z,0.00
2023-03-21T08:35:41.405Z,6.18
2023-03-21T08:36:40.606Z,16.51
2023-03-21T08:37:40.611Z,32.79
2023-03-21T08:38:40.604Z,32.34
2023-03-21T08:39:40.680Z,54.28
2023-03-21T08:40:40.599Z,60.30
2023-03-21T08:41:40.618Z,82.35
2023-03-21T08:42:40.611Z,102.65
2023-03-21T08:43:40.625Z,113.55
2023-03-21T08:44:40.606Z,123.98
2023-03-21T08:45:40.682Z,135.23
2023-03-21T08:46:40.717Z,145.58
2023-03-21T08:47:40.638Z,152.29
2023-03-21T08:48:40.630Z,159.64
2023-03-21T08:49:40.580Z,167.52
2023-03-21T08:50:40.566Z,167.77
2023-03-21T08:51:40.570Z,169.31
2023-03-21T08:52:40.558Z,173.03
2023-03-21T08:53:40.555Z,179.91
2023-03-21T08:54:40.544Z,189.74
2023-03-21T08:55:40.572Z,194.45
2023-03-21T08:56:40.544Z,196.59
2023-03-21T08:57:40.535Z,199.50
2023-03-21T08:58:40.528Z,200.49
2023-03-21T08:59:40.529Z,199.99
2023-03-21T09:00:40.498Z,204.17
2023-03-21T09:01:40.552Z,205.58
2023-03-21T09:02:40.512Z,205.86
2023-03-21T09:03:40.480Z,209.01
2023-03-21T09:04:40.621Z,208.85
2023-03-21T09:05:40.529Z,208.71
2023-03-21T09:06:40.504Z,210.65
2023-03-21T09:07:40.496Z,210.02
2023-03-21T09:08:40.476Z,208.17
2023-03-21T09:09:40.430Z,208.26
2023-03-21T09:10:40.393Z,209.22
2023-03-21T09:11:40.384Z,210.24
2023-03-21T09:12:40.368Z,208.94
2023-03-21T09:13:40.371Z,208.31
2023-03-21T09:14:40.386Z,206.56
2023-03-21T09:15:40.638Z,202.68
2023-03-21T09:16:40.359Z,201.31
2023-03-21T09:17:40.323Z,199.84
2023-03-21T09:18:40.312Z,196.63
2023-03-21T09:19:40.322Z,195.05
2023-03-21T09:20:40.302Z,194.97
2023-03-21T09:21:40.315Z,191.49
2023-03-21T09:22:42.590Z,189.45
2023-03-21T09:23:40.432Z,188.59
2023-03-21T09:24:40.379Z,188.77
2023-03-21T09:25:40.860Z,193.23
2023-03-21T09:26:40.370Z,193.35
2023-03-21T09:27:41.254Z,199.86
2023-03-21T09:28:40.340Z,204.69
2023-03-21T09:29:40.545Z,212.48
2023-03-21T09:30:40.324Z,214.23
2023-03-21T09:31:40.329Z,213.06
2023-03-21T09:32:40.262Z,207.56
2023-03-21T09:33:40.261Z,209.59
2023-03-21T09:34:40.229Z,215.32
2023-03-21T09:35:40.628Z,219.26
2023-03-21T09:36:40.223Z,220.46
2023-03-21T09:37:40.189Z,224.99
2023-03-21T09:38:40.176Z,227.04
2023-03-21T09:39:40.182Z,228.09
2023-03-21T09:40:40.183Z,226.20
2023-03-21T09:41:40.167Z,225.74
2023-03-21T09:42:40.124Z,226.59
2023-03-21T09:43:40.116Z,224.28
2023-03-21T09:44:40.112Z,222.46
2023-03-21T09:45:40.347Z,219.97
2023-03-21T09:46:40.196Z,223.51
2023-03-21T09:47:40.093Z,223.68
2023-03-21T09:48:50.588Z,223.87
2023-03-21T09:49:41.138Z,223.86
2023-03-21T09:50:40.010Z,224.63
2023-03-21T09:51:40.022Z,226.40
2023-03-21T09:52:40.014Z,230.27
2023-03-21T09:53:39.972Z,234.21
2023-03-21T09:54:39.981Z,236.16
2023-03-21T09:55:40.321Z,234.58
2023-03-21T09:56:39.946Z,235.87
2023-03-21T09:57:39.925Z,229.00
2023-03-21T09:58:39.912Z,225.07
2023-03-21T09:59:39.906Z,223.57
2023-03-21T10:00:39.921Z,224.84
2023-03-21T10:01:39.885Z,226.60
2023-03-21T10:02:39.855Z,227.09
2023-03-21T10:03:39.840Z,227.46
2023-03-21T10:04:39.935Z,222.15
2023-03-21T10:05:40.266Z,218.06
2023-03-21T10:06:39.795Z,211.21
2023-03-21T10:07:39.813Z,205.28
2023-03-21T10:08:39.800Z,200.76
2023-03-21T10:09:39.766Z,199.54
2023-03-21T10:10:40.163Z,200.52
2023-03-21T10:11:39.730Z,195.98
2023-03-21T10:12:39.718Z,196.01
2023-03-21T10:13:39.762Z,191.90
2023-03-21T10:14:39.706Z,187.20
2023-03-21T10:15:39.976Z,181.09
2023-03-21T10:16:39.708Z,173.60
2023-03-21T10:17:39.659Z,167.08
2023-03-21T10:18:39.660Z,159.06
2023-03-21T10:19:39.851Z,159.62
2023-03-21T10:20:39.609Z,157.46
2023-03-21T10:22:03.996Z,151.38
2023-03-21T10:22:40.594Z,151.41
2023-03-21T10:23:39.563Z,141.36
2023-03-21T10:24:39.552Z,136.24
2023-03-21T10:25:39.812Z,140.80
2023-03-21T10:26:39.559Z,147.27
2023-03-21T10:27:39.517Z,150.22
2023-03-21T10:29:40.550Z,151.72
2023-03-21T10:30:39.524Z,153.58
2023-03-21T10:31:39.546Z,158.32
2023-03-21T10:32:39.528Z,165.99
2023-03-21T10:33:39.466Z,177.92
2023-03-21T10:34:39.466Z,182.50
2023-03-21T10:35:39.993Z,186.70
2023-03-21T10:36:39.429Z,190.20
2023-03-21T10:37:39.418Z,194.94
2023-03-21T10:38:39.416Z,197.84
2023-03-21T10:39:39.417Z,201.73
2023-03-21T10:40:39.396Z,204.39
2023-03-21T10:41:39.372Z,206.03
2023-03-21T10:42:39.375Z,210.54
2023-03-21T10:43:39.366Z,211.06
2023-03-21T10:44:39.364Z,213.66
2023-03-21T10:45:39.602Z,212.55
2023-03-21T10:46:39.808Z,212.51
2023-03-21T10:47:39.568Z,212.48
2023-03-21T10:48:39.407Z,212.13
2023-03-21T10:50:06.464Z,212.06
2023-03-21T10:50:40.528Z,210.99
2023-03-21T10:51:39.231Z,205.78
2023-03-21T10:52:39.228Z,203.31
2023-03-21T10:53:39.206Z,200.96
2023-03-21T10:54:39.216Z,203.38
2023-03-21T10:55:39.498Z,202.89
2023-03-21T10:56:39.180Z,205.61
2023-03-21T10:57:39.168Z,206.94
2023-03-21T10:58:39.152Z,203.83
2023-03-21T10:59:39.129Z,201.36
2023-03-21T11:00:39.138Z,200.42
2023-03-21T11:01:39.216Z,196.56
2023-03-21T11:02:39.204Z,192.59
2023-03-21T11:03:39.088Z,193.38
2023-03-21T11:04:39.094Z,193.45
2023-03-21T11:05:39.346Z,195.91
2023-03-21T11:06:39.059Z,199.02
2023-03-21T11:07:39.040Z,201.77
2023-03-21T11:08:39.047Z,201.79
2023-03-21T11:09:39.026Z,201.91
2023-03-21T11:10:39.013Z,202.91
2023-03-21T11:11:39.001Z,202.32
2023-03-21T11:12:38.991Z,200.91
2023-03-21T11:13:38.979Z,198.39
2023-03-21T11:14:38.940Z,197.42
2023-03-21T11:15:39.320Z,196.97
2023-03-21T11:16:39.832Z,201.11
2023-03-21T11:17:38.912Z,202.22
2023-03-21T11:18:38.900Z,203.66
2023-03-21T11:19:38.863Z,205.38
2023-03-21T11:20:38.866Z,205.04
2023-03-21T11:21:38.854Z,203.78
2023-03-21T11:22:38.849Z,201.64
2023-03-21T11:23:38.821Z,202.94
2023-03-21T11:24:38.807Z,196.84
2023-03-21T11:25:39.017Z,199.22
2023-03-21T11:26:38.774Z,204.50
2023-03-21T11:27:38.786Z,209.59
2023-03-21T11:28:38.746Z,212.78
2023-03-21T11:29:38.710Z,212.67
2023-03-21T11:30:38.780Z,207.13
2023-03-21T11:31:38.691Z,166.30
2023-03-21T11:32:38.681Z,121.73
2023-03-21T11:33:38.663Z,99.38
2023-03-21T11:34:38.649Z,86.11
2023-03-21T11:35:38.944Z,67.84
2023-03-21T11:36:38.634Z,72.98
2023-03-21T11:37:38.624Z,83.12
2023-03-21T11:38:38.629Z,96.28
2023-03-21T11:39:38.613Z,104.56
2023-03-21T11:40:38.626Z,116.43
2023-03-21T11:41:38.582Z,122.86
2023-03-21T11:42:38.576Z,132.84
2023-03-21T11:43:38.587Z,134.48
2023-03-21T11:44:38.573Z,137.30
2023-03-21T11:45:39.033Z,131.79
2023-03-21T11:46:38.630Z,116.38
2023-03-21T11:47:38.663Z,119.15
2023-03-21T11:48:38.576Z,135.75
2023-03-21T11:49:38.553Z,134.20
2023-03-21T11:50:38.528Z,140.95
2023-03-21T11:51:38.517Z,140.45
2023-03-21T11:52:38.487Z,115.77
2023-03-21T11:53:38.474Z,122.61
2023-03-21T11:54:38.480Z,111.37
2023-03-21T11:55:38.767Z,132.94
2023-03-21T11:56:38.535Z,133.52
2023-03-21T11:57:38.438Z,128.79
2023-03-21T11:58:38.581Z,134.76
2023-03-21T11:59:38.425Z,130.46
2023-03-21T12:00:38.385Z,131.94
2023-03-21T12:04:38.399Z,134.99
2023-03-21T12:39:37.927Z,149.55
2023-03-21T12:41:37.884Z,150.94
2023-03-21T12:42:37.865Z,152.43
2023-03-21T12:43:37.849Z,154.81
2023-03-21T12:44:37.844Z,158.39
2023-03-21T12:45:46.661Z,163.36
2023-03-21T12:46:38.934Z,151.15
2023-03-21T12:47:37.787Z,152.92
2023-03-21T12:48:37.790Z,155.35
2023-03-21T12:49:37.758Z,157.84
2023-03-21T12:50:37.742Z,168.57
2023-03-21T12:51:37.730Z,178.45
2023-03-21T12:52:37.805Z,175.57
2023-03-21T12:53:37.706Z,164.19
2023-03-21T12:54:37.705Z,170.45
2023-03-21T12:55:38.046Z,175.63
2023-03-21T12:56:37.672Z,177.04
2023-03-21T12:57:40.213Z,179.61
2023-03-21T12:58:37.637Z,179.76
2023-03-21T12:59:37.629Z,178.08
2023-03-21T13:00:38.144Z,180.33
2023-03-21T13:01:37.609Z,186.27
2023-03-21T13:02:37.583Z,192.69
2023-03-21T13:03:40.188Z,189.54
2023-03-21T13:04:37.629Z,188.25
2023-03-21T13:05:37.544Z,188.50
2023-03-21T13:06:37.549Z,189.53
2023-03-21T13:07:37.519Z,190.15
2023-03-21T13:08:37.614Z,190.20
2023-03-21T13:09:38.437Z,187.61
2023-03-21T13:10:37.766Z,190.36
2023-03-21T13:11:37.489Z,192.16
2023-03-21T13:12:37.469Z,192.50
2023-03-21T13:13:37.466Z,195.08
2023-03-21T13:14:37.458Z,194.44
2023-03-21T13:15:37.460Z,194.04
2023-03-21T13:16:37.491Z,194.12
2023-03-21T13:17:37.442Z,198.49
2023-03-21T13:18:37.406Z,191.53
2023-03-21T13:19:37.403Z,187.87
2023-03-21T13:20:37.640Z,177.58
2023-03-21T13:21:37.401Z,176.52
2023-03-21T13:22:37.369Z,179.35
2023-03-21T13:23:37.370Z,182.82
2023-03-21T13:24:37.444Z,183.33
2023-03-21T13:25:37.343Z,184.05
2023-03-21T13:26:37.349Z,185.80
2023-03-21T13:27:37.413Z,189.37
2023-03-21T13:28:37.327Z,183.04
2023-03-21T13:29:37.316Z,175.39
2023-03-21T13:30:37.764Z,173.22
2023-03-21T13:31:50.911Z,173.11
2023-03-21T13:32:38.326Z,173.17
2023-03-21T13:33:37.260Z,173.35
2023-03-21T13:34:37.256Z,173.20
2023-03-21T13:35:37.638Z,173.67
2023-03-21T13:36:37.276Z,174.98
2023-03-21T13:37:37.260Z,174.57
2023-03-21T13:38:37.228Z,166.93
2023-03-21T13:39:37.230Z,166.49
2023-03-21T13:40:37.837Z,168.69
2023-03-21T13:41:37.263Z,169.08
2023-03-21T13:42:37.211Z,171.66
2023-03-21T13:43:37.194Z,171.75
2023-03-21T13:44:37.174Z,172.25
2023-03-21T13:45:37.606Z,172.85
2023-03-21T13:46:50.615Z,172.02
2023-03-21T13:47:38.105Z,171.75
2023-03-21T13:48:37.628Z,171.81
2023-03-21T13:49:37.062Z,170.04
2023-03-21T13:50:37.080Z,171.76
2023-03-21T13:51:37.092Z,175.79
2023-03-21T13:52:37.017Z,178.89
2023-03-21T13:53:36.987Z,177.89
2023-03-21T13:54:36.990Z,180.18
2023-03-21T13:55:37.500Z,181.61
2023-03-21T13:56:37.034Z,183.48
2023-03-21T13:57:36.950Z,187.67
2023-03-21T13:58:36.926Z,186.98
2023-03-21T13:59:36.903Z,190.13
2023-03-21T14:00:36.894Z,193.51
2023-03-21T14:01:36.902Z,195.06
2023-03-21T14:02:39.433Z,197.89
2023-03-21T14:03:36.887Z,197.96
2023-03-21T14:04:42.849Z,198.57
2023-03-21T14:05:37.474Z,198.17
2023-03-21T14:06:36.834Z,199.14
2023-03-21T14:07:36.933Z,201.25
2023-03-21T14:08:37.825Z,205.45
2023-03-21T14:09:36.776Z,198.39
2023-03-21T14:10:36.757Z,200.11
2023-03-21T14:11:38.304Z,203.97
2023-03-21T14:12:36.822Z,209.64
2023-03-21T14:13:48.321Z,216.88
2023-03-21T14:14:37.702Z,198.63
2023-03-21T14:15:40.714Z,201.29
2023-03-21T14:16:37.677Z,198.74
2023-03-21T14:17:36.672Z,201.63
2023-03-21T14:18:52.722Z,207.11
2023-03-21T14:19:37.645Z,198.87
2023-03-21T14:20:36.652Z,202.27
2023-03-21T14:21:36.600Z,207.89
2023-03-21T14:22:36.601Z,217.50
2023-03-21T14:23:36.599Z,229.96
2023-03-21T14:24:36.575Z,230.33
2023-03-21T14:25:41.067Z,231.14
2023-03-21T14:26:37.557Z,231.25
2023-03-21T14:27:36.526Z,231.69
2023-03-21T14:28:36.608Z,232.46
2023-03-21T14:29:36.503Z,233.76
2023-03-21T14:30:36.541Z,236.27
2023-03-21T14:31:36.445Z,236.87
2023-03-21T14:32:36.455Z,238.70
2023-03-21T14:33:36.410Z,238.12
2023-03-21T14:34:36.429Z,238.22
2023-03-21T14:35:36.831Z,238.29
2023-03-21T14:36:37.210Z,238.66
2023-03-21T14:37:36.376Z,239.57
2023-03-21T14:38:36.348Z,240.34
2023-03-21T14:39:36.340Z,242.55
2023-03-21T14:40:36.793Z,243.23
2023-03-21T14:41:36.311Z,243.20
2023-03-21T14:42:36.292Z,244.02
2023-03-21T14:43:36.285Z,244.58
2023-03-21T14:44:52.824Z,244.29
2023-03-21T14:45:37.630Z,244.38
2023-03-21T14:46:36.289Z,244.59
2023-03-21T14:47:36.218Z,245.02
2023-03-21T14:48:36.220Z,245.48
2023-03-21T14:49:36.199Z,246.83
2023-03-21T14:50:36.190Z,247.25
2023-03-21T14:51:36.174Z,247.48
2023-03-21T14:52:36.161Z,247.31
2023-03-21T14:53:36.183Z,248.83
2023-03-21T14:54:36.112Z,247.83
2023-03-21T14:55:36.298Z,248.96
2023-03-21T14:56:36.095Z,249.27
2023-03-21T14:57:36.071Z,248.85
2023-03-21T14:58:36.080Z,248.84
2023-03-21T14:59:36.046Z,248.52
2023-03-21T15:00:36.157Z,249.32
2023-03-21T15:01:36.024Z,249.24
2023-03-21T15:02:36.048Z,249.46
2023-03-21T15:03:36.044Z,249.10
2023-03-21T15:04:36.005Z,248.50
2023-03-21T15:05:36.002Z,249.67
2023-03-21T15:06:35.956Z,249.42
2023-03-21T16:51:34.768Z,247.64
2023-03-21T16:52:34.759Z,247.08
2023-03-21T17:25:34.426Z,246.06
2023-03-21T17:26:34.404Z,245.37
2023-03-21T17:27:34.409Z,246.50
2023-03-21T17:28:34.383Z,245.93
2023-03-21T17:29:34.416Z,246.41
2023-03-21T17:30:34.415Z,245.93
2023-03-21T17:31:34.379Z,245.35
2023-03-21T17:32:34.347Z,246.03
2023-03-21T17:33:34.333Z,245.93
2023-03-21T17:34:34.307Z,246.36
2023-03-21T17:35:34.336Z,245.84
2023-03-21T17:36:34.307Z,246.52
2023-03-21T17:37:34.292Z,246.28
2023-03-21T17:38:34.265Z,245.61
2023-03-21T17:39:34.293Z,245.48
2023-03-21T17:40:34.248Z,244.47
2023-03-21T17:41:34.234Z,245.45
2023-03-21T17:42:34.222Z,244.99
2023-03-21T17:43:34.234Z,246.43
2023-03-21T17:44:34.200Z,244.48
2023-03-21T17:45:34.215Z,245.05
2023-03-21T17:46:34.199Z,246.48
2023-03-21T17:47:34.175Z,245.24
2023-03-21T17:48:34.156Z,245.29
2023-03-21T17:49:34.154Z,245.47
2023-03-21T17:50:34.151Z,245.31
2023-03-21T17:51:34.135Z,245.00
2023-03-21T17:52:34.130Z,245.34
2023-03-21T17:53:34.116Z,244.17
2023-03-21T17:54:34.097Z,244.57
2023-03-21T17:55:34.103Z,243.55
2023-03-21T17:56:34.087Z,245.62
2023-03-21T17:57:34.073Z,245.85
2023-03-21T17:58:34.056Z,244.49
2023-03-21T17:59:34.059Z,244.87
2023-03-21T18:00:34.054Z,244.77
2023-03-21T18:01:34.083Z,244.79
2023-03-21T18:02:34.022Z,244.73
2023-03-21T18:03:34.013Z,245.40
2023-03-21T18:04:34.073Z,245.12
2023-03-21T18:05:34.003Z,244.63
2023-03-21T18:06:34.023Z,245.42
2023-03-21T18:08:05.931Z,244.32
2023-03-21T18:08:34.980Z,244.44
2023-03-21T18:09:33.988Z,244.65
2023-03-21T18:10:33.991Z,244.55
2023-03-21T18:11:33.969Z,244.59
2023-03-21T18:12:33.940Z,245.29
2023-03-21T18:13:33.928Z,245.64
2023-03-21T18:14:34.874Z,245.27
2023-03-21T18:15:35.996Z,244.40
2023-03-21T18:16:33.918Z,244.46
2023-03-21T18:17:33.886Z,244.71
2023-03-21T18:18:34.020Z,244.61
2023-03-21T18:19:33.871Z,244.64
2023-03-21T18:20:54.958Z,243.95
2023-03-21T18:21:35.790Z,244.53
2023-03-21T18:22:33.829Z,244.64
2023-03-21T18:23:33.826Z,245.03
2023-03-21T18:24:33.815Z,245.07
2023-03-21T18:25:33.815Z,244.67
2023-03-21T18:26:33.808Z,245.56
2023-03-21T18:27:35.296Z,245.04
2023-03-21T18:28:33.793Z,245.31
2023-03-21T18:30:18.068Z,243.95
2023-03-21T18:30:53.434Z,244.06
2023-03-21T18:31:33.806Z,244.12
2023-03-21T18:32:33.791Z,244.29
2023-03-21T18:33:33.761Z,244.90
2023-03-21T18:34:33.754Z,245.02
2023-03-21T18:35:33.768Z,244.82
2023-03-21T18:36:34.474Z,244.93
2023-03-21T18:37:35.217Z,245.63
2023-03-21T18:38:33.745Z,245.74
2023-03-21T18:39:33.736Z,244.94
2023-03-21T18:40:33.723Z,245.28
2023-03-21T18:41:33.721Z,245.54
2023-03-21T18:42:33.716Z,244.79
2023-03-21T18:44:34.702Z,243.58
2023-03-21T18:45:33.714Z,243.71
2023-03-21T18:46:33.735Z,243.67
2023-03-21T18:47:33.681Z,244.21
2023-03-21T18:48:34.352Z,244.09
2023-03-21T18:50:12.776Z,244.75
2023-03-21T18:50:34.774Z,244.84
2023-03-21T18:51:33.651Z,244.98
2023-03-21T18:52:33.630Z,244.92
2023-03-21T18:53:33.614Z,244.77
2023-03-21T18:54:33.888Z,244.69
2023-03-21T18:55:45.394Z,244.71
2023-03-21T18:57:31.770Z,244.80
2023-03-21T18:57:37.541Z,244.83
2023-03-21T18:58:33.593Z,244.86
2023-03-21T18:59:33.574Z,245.08
2023-03-21T19:00:33.832Z,245.41
2023-03-21T19:01:33.655Z,245.22
2023-03-21T19:02:33.545Z,243.93
2023-03-21T19:03:36.980Z,244.50
2023-03-21T19:04:33.592Z,244.57
2023-03-21T19:05:33.562Z,244.58
2023-03-21T19:06:33.542Z,244.68